Time;durP1;ratioP1;P1;durP2;ratioP2;P2;SDS_P1;SDS_P2;PMS_P1;PMS_P2;Temp;Humidity;BMP_temperature;BMP_pressure;BME280_temperature;BME280_humidity;BME280_pressure;Samples;Min_cycle;Max_cycle;Signal;HPM_P1;HPM_P2
2022/06/13 00:01:14;;;;;;;1.10;0.60;;;;;;;26.62;45.67;100727.53;4991786;28;20266;-72
2022/06/13 00:03:39;;;;;;;0.50;0.32;;;;;;;26.63;45.54;100725.69;4991868;28;20469;-72
2022/06/13 00:06:05;;;;;;;1.02;0.40;;;;;;;26.63;45.49;100720.34;4991718;28;20126;-71
2022/06/13 00:08:31;;;;;;;0.60;0.30;;;;;;;26.63;45.46;100726.50;4991633;28;20113;-72
2022/06/13 00:10:56;;;;;;;1.45;0.40;;;;;;;26.63;45.36;100726.50;4991577;28;20026;-72
2022/06/13 00:13:22;;;;;;;0.40;0.30;;;;;;;26.64;45.46;100722.78;4991886;28;20030;-72
2022/06/13 00:15:47;;;;;;;0.57;0.40;;;;;;;26.64;45.39;100720.09;4991723;28;20030;-72
2022/06/13 00:18:12;;;;;;;0.70;0.30;;;;;;;26.65;45.31;100721.72;4991547;28;20092;-71
2022/06/13 00:20:38;;;;;;;0.73;0.38;;;;;;;26.65;45.21;100712.88;4991597;28;20464;-72
2022/06/13 00:23:03;;;;;;;0.90;0.40;;;;;;;26.65;45.40;100719.03;4991758;28;20034;-71
2022/06/13 00:25:29;;;;;;;1.55;0.40;;;;;;;26.65;45.25;100716.38;4991289;28;20273;-72
2022/06/13 00:27:55;;;;;;;0.80;0.40;;;;;;;26.66;45.52;100709.97;4991470;28;20046;-72
2022/06/13 00:30:21;;;;;;;2.03;0.40;;;;;;;26.65;45.30;100705.69;4991561;28;20053;-72
2022/06/13 00:32:46;;;;;;;0.82;0.40;;;;;;;26.65;45.34;100724.38;4991213;28;20478;-72
2022/06/13 00:35:11;;;;;;;0.88;0.40;;;;;;;26.65;45.25;100726.25;4991095;28;20022;-72
2022/06/13 00:37:37;;;;;;;1.85;0.47;;;;;;;26.63;45.41;100726.50;4991119;28;20034;-72
2022/06/13 00:40:04;;;;;;;0.57;0.40;;;;;;;26.63;45.36;100731.03;4991032;28;20019;-72
2022/06/13 00:42:29;;;;;;;0.82;0.50;;;;;;;26.62;45.55;100730.22;4990716;28;20050;-71
2022/06/13 00:45:25;;;;;;;0.75;0.43;;;;;;;26.60;45.27;100732.31;4991478;28;20100;-72
2022/06/13 00:47:54;;;;;;;1.45;0.40;;;;;;;26.60;45.22;100729.66;4974932;28;20044;-72
2022/06/13 00:50:24;;;;;;;0.60;0.40;;;;;;;26.61;45.44;100723.25;4990724;28;20041;-72
2022/06/13 00:53:00;;;;;;;0.68;0.50;;;;;;;26.61;45.35;100725.13;4991073;28;20026;-72
2022/06/13 00:55:43;;;;;;;1.80;0.47;;;;;;;26.58;45.26;100717.59;4991072;28;20033;-72
2022/06/13 00:58:10;;;;;;;1.13;0.50;;;;;;;26.60;45.17;100716.28;4990827;28;20094;-72
2022/06/13 01:00:35;;;;;;;0.80;0.47;;;;;;;26.59;45.16;100714.66;4990679;28;20381;-72
2022/06/13 01:03:03;;;;;;;0.52;0.32;;;;;;;26.59;45.16;100706.66;4990264;28;20034;-72
2022/06/13 01:05:34;;;;;;;0.73;0.40;;;;;;;26.59;45.20;100703.97;4990762;28;20057;-71
2022/06/13 01:08:04;;;;;;;0.80;0.40;;;;;;;26.60;45.17;100705.59;4990285;28;20037;-71
2022/06/13 01:13:15;;;;;;;0.52;0.30;;;;;;;26.59;44.94;100697.84;4990611;28;20048;-71
2022/06/13 01:16:10;;;;;;;1.65;0.40;;;;;;;26.58;45.11;100686.34;4990813;28;20031;-71
2022/06/13 01:19:00;;;;;;;8.10;0.70;;;;;;;26.56;45.07;100688.44;4910798;29;20044;-71
2022/06/13 01:21:32;;;;;;;0.63;0.38;;;;;;;26.56;45.04;100679.63;4911096;29;20658;-72
2022/06/13 01:24:12;;;;;;;0.77;0.30;;;;;;;26.58;45.08;100688.19;4910841;29;20098;-72
2022/06/13 01:27:25;;;;;;;1.05;0.35;;;;;;;26.56;45.17;100680.41;4910861;29;20466;-71
2022/06/13 01:29:58;;;;;;;0.68;0.30;;;;;;;26.56;45.10;100682.28;4910717;29;20040;-71
2022/06/13 01:32:51;;;;;;;1.02;0.43;;;;;;;26.54;44.98;100682.53;4910597;29;20039;-71
2022/06/13 01:35:29;;;;;;;0.70;0.30;;;;;;;26.55;45.13;100684.16;4910678;29;20424;-71
2022/06/13 01:38:03;;;;;;;1.48;0.65;;;;;;;26.56;44.94;100683.09;4910758;29;20119;-71
2022/06/13 01:40:54;;;;;;;0.93;0.30;;;;;;;26.54;45.13;100687.06;4910334;29;20047;-72
2022/06/13 01:43:45;;;;;;;0.63;0.45;;;;;;;26.54;45.04;100685.19;4910289;29;20590;-71
2022/06/13 01:46:21;;;;;;;0.88;0.50;;;;;;;26.53;45.18;100683.59;4910227;29;20040;-71
2022/06/13 01:48:55;;;;;;;1.63;0.40;;;;;;;26.54;44.98;100684.38;4910246;29;20054;-71
2022/06/13 01:51:23;;;;;;;0.93;0.50;;;;;;;26.52;45.01;100681.97;4910470;29;20036;-71
2022/06/13 01:54:15;;;;;;;0.60;0.40;;;;;;;26.52;45.07;100683.81;4910237;29;20048;-71
2022/06/13 01:57:08;;;;;;;0.70;0.50;;;;;;;26.50;45.04;100686.75;4972053;28;20038;-71
2022/06/13 01:59:52;;;;;;;1.60;0.50;;;;;;;26.52;44.91;100686.50;4989801;28;20045;-71
2022/06/13 02:02:28;;;;;;;0.60;0.30;;;;;;;26.51;44.98;100685.69;4971639;28;20394;-71
2022/06/13 02:05:00;;;;;;;0.82;0.40;;;;;;;26.50;45.00;100678.72;4989892;28;20386;-71
2022/06/13 02:07:41;;;;;;;1.38;0.32;;;;;;;26.50;45.06;100684.06;4989412;28;20502;-71
2022/06/13 02:10:13;;;;;;;0.93;0.40;;;;;;;26.52;44.91;100676.63;4990021;28;20161;-71
2022/06/13 02:12:41;;;;;;;2.45;0.57;;;;;;;26.54;44.84;100679.03;4989461;28;20407;-71
2022/06/13 02:15:25;;;;;;;0.60;0.40;;;;;;;26.54;44.83;100679.84;4989361;28;20445;-71
2022/06/13 02:17:59;;;;;;;0.38;0.30;;;;;;;26.55;44.89;100680.66;4989193;28;20037;-71
2022/06/13 02:20:33;;;;;;;1.65;0.38;;;;;;;26.54;44.96;100682.53;4989540;28;20022;-72
2022/06/13 02:23:04;;;;;;;0.50;0.40;;;;;;;26.56;44.94;100676.94;4989324;28;20085;-71
2022/06/13 02:25:45;;;;;;;0.70;0.38;;;;;;;26.56;44.92;100676.94;4989433;28;20030;-71
2022/06/13 02:28:13;;;;;;;0.68;0.40;;;;;;;26.57;44.98;100675.88;4989551;28;20366;-71
2022/06/13 02:30:45;;;;;;;0.55;0.30;;;;;;;26.56;44.95;100669.72;4989106;28;20038;-71
2022/06/13 02:33:21;;;;;;;2.83;0.60;;;;;;;26.55;44.87;100662.78;4989045;28;20475;-71
2022/06/13 02:35:53;;;;;;;0.60;0.30;;;;;;;26.56;45.10;100664.38;4989004;28;20038;-71
2022/06/13 02:38:44;;;;;;;0.60;0.40;;;;;;;26.53;44.74;100662.22;4989106;28;20082;-71
2022/06/13 02:41:17;;;;;;;0.75;0.40;;;;;;;26.54;44.87;100661.16;5248727;22;20424;-72
2022/06/13 02:44:06;;;;;;;0.30;0.20;;;;;;;26.54;44.94;100674.50;4987881;28;20045;-71
2022/06/13 02:46:37;;;;;;;1.10;0.30;;;;;;;26.54;44.83;100677.19;4988977;28;20113;-71
2022/06/13 02:49:25;;;;;;;0.75;0.40;;;;;;;26.54;45.02;100676.38;4989236;28;20117;-72
2022/06/13 02:51:59;;;;;;;0.57;0.30;;;;;;;26.55;44.95;100684.16;4988987;28;20493;-71
2022/06/13 02:54:39;;;;;;;0.98;0.40;;;;;;;26.52;44.83;100671.28;4989102;28;20045;-72
2022/06/13 02:57:42;;;;;;;0.50;0.30;;;;;;;26.51;45.04;100660.84;4989120;28;20493;-71
2022/06/13 03:00:27;;;;;;;1.45;0.60;;;;;;;26.52;44.90;100668.59;4971362;28;20379;-71
2022/06/13 03:03:10;;;;;;;0.60;0.50;;;;;;;26.53;44.98;100667.56;4989592;28;20038;-71
2022/06/13 03:05:52;;;;;;;1.48;0.30;;;;;;;26.54;44.81;100669.16;4989356;28;20045;-71
2022/06/13 03:08:42;;;;;;;2.22;0.40;;;;;;;26.52;45.01;100659.78;4989355;28;20038;-71
2022/06/13 03:11:41;;;;;;;0.50;0.32;;;;;;;26.54;44.78;100658.47;4989181;28;20430;-71
2022/06/13 03:14:15;;;;;;;0.70;0.30;;;;;;;26.56;44.86;100655.56;4983972;28;20036;-71
2022/06/13 03:16:44;;;;;;;0.70;0.40;;;;;;;26.56;44.98;100648.34;4989225;28;20402;-71
2022/06/13 03:19:37;;;;;;;1.90;0.40;;;;;;;26.56;45.09;100648.34;4988534;28;20033;-71
2022/06/13 03:22:06;;;;;;;1.60;0.60;;;;;;;26.55;44.88;100638.72;4988690;28;20034;-71
2022/06/13 03:24:48;;;;;;;0.70;0.40;;;;;;;26.56;44.91;100648.34;4988377;28;20094;-71
2022/06/13 03:27:33;;;;;;;0.60;0.40;;;;;;;26.56;44.91;100643.00;4988435;28;20478;-71
2022/06/13 03:30:04;;;;;;;1.15;0.40;;;;;;;26.56;44.79;100636.88;4988876;28;20082;-71
2022/06/13 03:32:37;;;;;;;0.50;0.38;;;;;;;26.57;44.89;100638.47;4988571;28;20118;-71
2022/06/13 03:35:08;;;;;;;2.05;0.40;;;;;;;26.58;44.78;100630.22;4988592;28;20468;-71
2022/06/13 03:37:42;;;;;;;0.80;0.45;;;;;;;26.56;44.77;100624.31;4988549;28;20037;-71
2022/06/13 03:40:18;;;;;;;1.38;0.35;;;;;;;26.56;44.96;100624.31;4988346;28;20338;-71
2022/06/13 03:42:51;;;;;;;3.00;0.50;;;;;;;26.56;45.04;100618.97;4988179;28;20059;-71
2022/06/13 03:45:36;;;;;;;0.60;0.50;;;;;;;26.54;44.83;100621.06;4988336;28;20072;-71
2022/06/13 03:48:14;;;;;;;1.85;0.40;;;;;;;26.52;44.91;100609.00;4988469;28;20026;-71
2022/06/13 03:51:00;;;;;;;0.80;0.40;;;;;;;26.52;44.72;100611.69;4988290;28;20165;-71
2022/06/13 03:53:32;;;;;;;1.05;0.45;;;;;;;26.54;44.88;100614.94;4988527;28;20030;-71
2022/06/13 03:56:11;;;;;;;1.65;0.30;;;;;;;26.52;44.76;100620.50;4988242;28;20109;-71
2022/06/13 03:58:44;;;;;;;1.15;0.50;;;;;;;26.51;44.84;100616.22;4988332;28;20061;-71
2022/06/13 04:01:16;;;;;;;1.30;0.70;;;;;;;26.52;44.91;100617.84;4988469;28;20030;-71
2022/06/13 04:03:43;;;;;;;1.08;0.50;;;;;;;26.51;44.86;100610.88;4988160;28;20034;-71
2022/06/13 04:06:37;;;;;;;1.38;0.60;;;;;;;26.50;44.92;100617.28;4988239;28;20037;-71
2022/06/13 04:09:09;;;;;;;0.67;0.40;;;;;;;26.50;44.93;100611.94;4988119;28;20113;-71
2022/06/13 04:11:44;;;;;;;0.73;0.32;;;;;;;26.51;44.97;100615.41;4988361;28;20045;-72
2022/06/13 04:14:35;;;;;;;1.10;0.50;;;;;;;26.50;45.04;100614.59;4988249;28;20375;-71
2022/06/13 04:17:07;;;;;;;1.27;0.40;;;;;;;26.50;45.06;100625.28;4988303;28;20405;-71
2022/06/13 04:19:33;;;;;;;0.60;0.30;;;;;;;26.52;44.98;100615.16;4988191;28;20037;-71
2022/06/13 04:22:10;;;;;;;0.77;0.30;;;;;;;26.51;44.84;100621.56;4988189;28;20394;-71
2022/06/13 04:24:42;;;;;;;0.80;0.40;;;;;;;26.54;44.97;100625.63;4988267;28;20022;-71
2022/06/13 04:27:26;;;;;;;0.57;0.50;;;;;;;26.51;44.80;100626.91;4991229;28;20088;-71
2022/06/13 04:30:01;;;;;;;0.60;0.50;;;;;;;26.51;44.82;100624.25;4991391;28;20030;-72
2022/06/13 04:32:36;;;;;;;1.23;0.35;;;;;;;26.51;44.97;100623.44;4991689;28;20356;-71
2022/06/13 04:35:02;;;;;;;3.20;0.50;;;;;;;26.50;45.06;100616.47;4991629;28;20445;-72
2022/06/13 04:37:28;;;;;;;1.05;0.63;;;;;;;26.50;45.16;100624.47;4973810;28;20422;-72
2022/06/13 04:40:00;;;;;;;1.38;0.60;;;;;;;26.50;45.27;100627.16;4991522;28;20026;-71
2022/06/13 04:42:31;;;;;;;1.25;0.65;;;;;;;26.49;45.00;100615.66;4991222;28;20443;-72
2022/06/13 04:45:03;;;;;;;1.25;0.60;;;;;;;26.48;45.08;100618.56;4991574;28;20072;-72
2022/06/13 04:47:29;;;;;;;1.13;0.70;;;;;;;26.47;45.32;100620.44;4991163;28;20497;-72
2022/06/13 04:49:58;;;;;;;1.40;0.73;;;;;;;26.46;45.02;100613.50;4991472;28;20026;-72
2022/06/13 04:52:29;;;;;;;1.80;0.70;;;;;;;26.45;45.09;100606.56;4991324;28;20022;-72
2022/06/13 04:55:00;;;;;;;1.73;0.70;;;;;;;26.47;45.10;100614.31;4990999;28;20033;-72
2022/06/13 04:57:28;;;;;;;1.33;0.73;;;;;;;26.45;45.09;100609.22;4991057;28;20615;-71
2022/06/13 04:59:54;;;;;;;3.63;0.68;;;;;;;26.45;45.02;100611.88;4991121;28;20037;-71
2022/06/13 05:02:36;;;;;;;1.42;0.47;;;;;;;26.43;45.33;100616.66;4991381;28;20314;-71
2022/06/13 05:05:04;;;;;;;2.70;0.50;;;;;;;26.44;45.03;100615.63;4991028;28;20027;-72
2022/06/13 05:07:33;;;;;;;1.80;0.60;;;;;;;26.44;45.08;100623.63;4990706;28;20061;-72
2022/06/13 05:10:02;;;;;;;0.88;0.57;;;;;;;26.45;44.96;100617.22;4990978;28;20493;-72
2022/06/13 05:12:38;;;;;;;1.02;0.60;;;;;;;26.43;45.22;100616.66;4990972;28;20069;-72
2022/06/13 05:15:07;;;;;;;0.88;0.50;;;;;;;26.44;45.15;100616.44;4990854;28;20045;-72
2022/06/13 05:17:54;;;;;;;1.45;0.65;;;;;;;26.44;44.96;100620.97;4990728;28;20371;-72
2022/06/13 05:20:40;;;;;;;0.73;0.50;;;;;;;26.42;45.05;100634.56;4990850;28;20042;-72
2022/06/13 05:23:36;;;;;;;0.80;0.50;;;;;;;26.42;45.38;100639.09;4990593;28;20494;-71
2022/06/13 05:26:02;;;;;;;;;;;;;;;26.35;45.49;100636.59;4991355;28;20026;-71
2022/06/13 05:28:31;;;;;;;2.10;0.70;;;;;;;26.39;45.55;100636.91;4990311;28;19914;-71
2022/06/13 05:30:59;;;;;;;1.10;0.75;;;;;;;26.42;45.65;100644.44;4990536;28;20038;-72
2022/06/13 05:33:29;;;;;;;1.65;0.75;;;;;;;26.44;45.52;100645.00;4990729;28;20030;-72
2022/06/13 05:35:57;;;;;;;1.10;0.70;;;;;;;26.45;45.65;100643.94;4990513;28;20442;-72
2022/06/13 05:38:34;;;;;;;1.23;0.75;;;;;;;26.44;45.64;100647.66;4989424;28;20038;-71
2022/06/13 05:40:59;;;;;;;2.60;0.93;;;;;;;26.44;45.81;100648.47;4989894;28;20494;-72
2022/06/13 05:43:25;;;;;;;6.63;0.63;;;;;;;26.44;45.57;100647.66;4990358;28;20022;-72
2022/06/13 05:45:51;;;;;;;1.10;0.60;;;;;;;26.45;45.99;100646.63;4990153;28;20041;-72
2022/06/13 05:48:19;;;;;;;4.22;0.57;;;;;;;26.47;45.78;100646.38;4990116;28;20026;-72
2022/06/13 05:50:45;;;;;;;2.65;0.70;;;;;;;26.46;45.87;100645.56;4990109;28;20026;-72
2022/06/13 05:53:16;;;;;;;2.08;0.60;;;;;;;26.47;45.73;100646.38;4989891;28;20022;-71
2022/06/13 05:55:43;;;;;;;0.90;0.68;;;;;;;26.46;45.80;100648.25;4990039;28;20030;-72
2022/06/13 05:58:13;;;;;;;3.28;0.60;;;;;;;26.46;45.86;100650.91;4989897;28;20026;-72
2022/06/13 06:00:45;;;;;;;0.90;0.50;;;;;;;26.46;45.64;100650.91;4990060;28;20033;-71
2022/06/13 06:03:10;;;;;;;1.45;0.60;;;;;;;26.46;46.09;100656.25;4989710;28;20443;-72
2022/06/13 06:05:38;;;;;;;2.55;0.52;;;;;;;26.46;45.92;100648.25;4989752;28;20037;-72
2022/06/13 06:08:04;;;;;;;1.80;0.60;;;;;;;26.47;45.80;100647.16;4989449;28;20697;-71
2022/06/13 06:10:32;;;;;;;1.10;0.52;;;;;;;26.47;45.78;100652.50;4989537;28;20041;-72
2022/06/13 06:12:58;;;;;;;1.88;0.50;;;;;;;26.47;45.79;100659.72;4989593;28;20030;-72
2022/06/13 06:15:23;;;;;;;2.08;0.40;;;;;;;26.47;45.94;100657.84;4989577;28;20057;-71
2022/06/13 06:17:49;;;;;;;1.13;0.60;;;;;;;26.48;45.73;100650.63;4989447;28;20109;-71
2022/06/13 06:20:17;;;;;;;1.70;0.40;;;;;;;26.49;45.77;100652.25;4989398;28;20030;-71
2022/06/13 06:22:42;;;;;;;4.47;0.70;;;;;;;26.48;45.94;100656.78;4989569;28;20522;-71
2022/06/13 06:25:08;;;;;;;4.82;0.80;;;;;;;26.49;45.97;100660.25;4989303;28;20109;-71
2022/06/13 06:27:34;;;;;;;1.73;0.50;;;;;;;26.45;46.30;100659.97;4989296;28;20316;-71
2022/06/13 06:29:59;;;;;;;3.45;0.80;;;;;;;26.37;46.46;100661.19;4989577;28;20325;-71
2022/06/13 06:32:25;;;;;;;3.08;1.15;;;;;;;26.33;46.67;100659.25;4989201;28;20030;-72
2022/06/13 06:34:50;;;;;;;6.68;1.25;;;;;;;26.30;46.86;100659.69;4989324;28;20018;-71
2022/06/13 06:37:15;;;;;;;6.28;1.00;;;;;;;26.30;46.67;100651.69;4988664;28;20124;-71
2022/06/13 06:39:41;;;;;;;4.85;1.35;;;;;;;26.27;46.96;100646.84;4989096;28;20028;-71
2022/06/13 06:42:06;;;;;;;2.45;0.77;;;;;;;26.24;47.32;100653.47;4988858;28;20149;-71
2022/06/13 06:44:32;;;;;;;3.83;0.90;;;;;;;26.23;47.06;100673.22;4988903;28;20026;-71
2022/06/13 06:46:57;;;;;;;3.83;0.77;;;;;;;26.23;47.15;100661.72;4989046;28;20037;-71
2022/06/13 06:49:23;;;;;;;3.00;0.82;;;;;;;26.23;47.30;100667.88;4988967;28;20031;-72
2022/06/13 06:51:48;;;;;;;2.70;0.90;;;;;;;26.21;47.58;100682.53;4988676;28;20030;-71
2022/06/13 06:59:53;;;;;;;13.05;2.83;;;;;;;26.17;47.80;100681.38;4988934;28;20038;-71
2022/06/13 07:02:23;;;;;;;10.60;2.70;;;;;;;26.17;47.84;100678.72;4988926;28;20038;-71
2022/06/13 07:04:50;;;;;;;54.30;11.00;;;;;;;26.18;48.43;100685.66;4988787;28;20103;-70
2022/06/13 07:07:16;;;;;;;9.73;3.17;;;;;;;26.17;48.76;100697.41;4988680;28;20262;-70
2022/06/13 07:09:41;;;;;;;7.05;2.50;;;;;;;26.27;49.42;100700.25;4988249;28;20273;-71
2022/06/13 07:12:07;;;;;;;16.48;3.85;;;;;;;26.59;51.89;100695.16;4988844;28;20557;-73
2022/06/13 07:14:34;;;;;;;8.05;2.28;;;;;;;26.92;53.91;100691.63;4988412;28;20026;-73
2022/06/13 07:17:02;;;;;;;8.48;2.50;;;;;;;27.08;56.75;100690.78;4994487;22;20082;-73
2022/06/13 07:19:28;;;;;;;5.70;2.08;;;;;;;27.07;55.21;100683.81;4987442;28;20022;-73
2022/06/13 07:21:54;;;;;;;49.70;7.90;;;;;;;27.24;54.40;100675.75;4977814;28;20026;-73
2022/06/13 07:24:22;;;;;;;7.95;2.00;;;;;;;27.19;53.05;100659.66;4988029;28;20034;-73
2022/06/13 07:26:49;;;;;;;6.05;2.25;;;;;;;27.06;53.09;100650.94;4988418;28;20034;-73
2022/06/13 07:29:18;;;;;;;3.75;2.22;;;;;;;26.97;55.33;100631.03;4979535;28;20124;-73
2022/06/13 07:31:45;;;;;;;5.65;2.00;;;;;;;26.96;56.34;100626.72;4984998;28;20093;-73
2022/06/13 07:34:14;;;;;;;5.38;1.40;;;;;;;26.87;54.59;100619.41;4987227;28;20062;-73
2022/06/13 07:36:42;;;;;;;4.38;1.30;;;;;;;26.84;53.25;100617.22;4981116;28;20049;-72
2022/06/13 07:39:08;;;;;;;9.05;2.80;;;;;;;26.90;53.13;100609.00;4988282;28;20475;-72
2022/06/13 07:41:33;;;;;;;8.48;1.85;;;;;;;26.91;52.60;100591.91;4981706;28;20085;-73
2022/06/13 07:43:59;;;;;;;6.82;1.38;;;;;;;26.89;51.83;100590.53;4985383;28;20038;-73
2022/06/13 07:46:28;;;;;;;8.25;1.35;;;;;;;26.84;50.94;100587.81;4989727;28;20027;-73
2022/06/13 07:48:53;;;;;;;7.15;1.05;;;;;;;26.78;50.84;100579.72;4988256;28;20038;-73
2022/06/13 07:51:21;;;;;;;5.35;1.02;;;;;;;26.73;50.47;100571.66;4988154;28;20023;-73
2022/06/13 07:53:46;;;;;;;4.53;1.00;;;;;;;26.69;50.50;100570.53;4977912;28;20042;-73
2022/06/13 07:56:14;;;;;;;1.15;0.75;;;;;;;26.70;50.79;100561.44;4980996;28;20035;-73
2022/06/13 07:58:42;;;;;;;1.00;0.80;;;;;;;26.70;50.68;100550.75;4987493;28;20065;-72
2022/06/13 08:01:09;;;;;;;3.83;1.00;;;;;;;26.69;50.72;100557.16;4978814;28;20077;-73
2022/06/13 08:03:35;;;;;;;2.30;0.90;;;;;;;26.66;51.10;100554.97;4984001;28;20030;-73
2022/06/13 08:06:01;;;;;;;3.10;0.93;;;;;;;26.64;51.61;100562.44;4988349;28;20031;-73
2022/06/13 08:08:27;;;;;;;4.43;1.10;;;;;;;26.61;51.84;100567.47;4991829;28;22307;-73
2022/06/13 08:10:54;;;;;;;2.95;1.33;;;;;;;26.59;52.22;100574.91;4991623;28;20546;-73
2022/06/13 08:13:21;;;;;;;5.00;1.30;;;;;;;26.58;52.53;100589.34;4980070;28;20069;-73
2022/06/13 08:15:48;;;;;;;3.90;1.30;;;;;;;26.55;52.55;100590.63;4991703;28;20022;-73
2022/06/13 08:18:14;;;;;;;9.73;3.13;;;;;;;26.54;52.98;100578.31;4980336;28;20057;-73
2022/06/13 08:20:42;;;;;;;4.93;3.35;;;;;;;26.50;53.20;100566.50;4990431;28;20038;-73
2022/06/13 08:23:10;;;;;;;2.20;2.00;;;;;;;26.47;52.52;100574.25;4991478;28;20018;-73
2022/06/13 08:25:37;;;;;;;4.47;2.33;;;;;;;26.48;51.86;100584.66;4991161;28;20022;-73
2022/06/13 08:28:04;;;;;;;3.70;1.20;;;;;;;26.48;51.08;100595.34;4991286;28;20129;-73
2022/06/13 08:30:56;;;;;;;2.22;1.20;;;;;;;26.45;49.99;100611.88;4985048;28;20801;-73
2022/06/13 08:33:22;;;;;;;3.60;0.98;;;;;;;26.39;50.99;100616.34;4990156;28;20038;-72
2022/06/13 08:35:49;;;;;;;2.55;0.95;;;;;;;26.36;51.32;100608.00;4986075;28;20394;-73
2022/06/13 08:38:14;;;;;;;1.80;0.93;;;;;;;26.37;51.89;100604.28;4983481;28;20084;-73
2022/06/13 08:41:14;;;;;;;2.15;1.02;;;;;;;26.36;51.73;100605.34;4991472;28;20030;-73
2022/06/13 08:43:55;;;;;;;3.15;0.93;;;;;;;26.34;50.99;100602.91;4991264;28;20026;-72
2022/06/13 08:47:02;;;;;;;2.47;0.88;;;;;;;26.35;50.54;100601.06;4991026;28;20111;-72
2022/06/13 08:49:39;;;;;;;1.50;0.70;;;;;;;26.34;50.21;100600.25;4910802;29;20492;-73
2022/06/13 08:52:26;;;;;;;1.83;0.85;;;;;;;26.34;49.70;100599.44;4909342;29;20516;-73
2022/06/13 08:55:06;;;;;;;3.03;0.88;;;;;;;26.35;49.70;100606.41;4911387;29;20140;-73
2022/06/13 08:57:34;;;;;;;1.23;0.90;;;;;;;26.37;49.74;100599.75;4911361;29;20047;-73
2022/06/13 09:00:09;;;;;;;1.95;0.88;;;;;;;26.39;49.81;100594.97;4911139;29;20460;-73
2022/06/13 09:02:55;;;;;;;1.75;1.00;;;;;;;26.39;49.93;100591.50;4904865;29;20043;-72
2022/06/13 09:05:27;;;;;;;2.90;0.90;;;;;;;26.42;50.13;100591.00;4909885;29;20051;-73
2022/06/13 09:08:05;;;;;;;2.78;0.90;;;;;;;26.42;49.86;100591.00;4910105;29;20086;-73
2022/06/13 09:11:01;;;;;;;2.25;1.10;;;;;;;26.40;49.95;100587.78;4916752;29;20036;-73
2022/06/13 09:13:40;;;;;;;1.80;0.60;;;;;;;26.39;49.60;100581.63;4900119;29;20060;-73
2022/06/13 09:16:12;;;;;;;1.50;0.70;;;;;;;26.42;49.60;100580.31;4906159;29;20555;-74
2022/06/13 09:18:37;;;;;;;2.15;0.60;;;;;;;26.44;49.48;100580.88;4903529;29;20063;-73
2022/06/13 09:21:13;;;;;;;1.70;0.70;;;;;;;26.46;49.36;100575.31;4978183;28;20046;-73
2022/06/13 09:23:55;;;;;;;3.58;0.70;;;;;;;26.45;49.26;100571.81;4990466;28;20492;-73
2022/06/13 09:26:29;;;;;;;5.30;0.68;;;;;;;26.45;48.99;100566.47;4990542;28;20064;-74
2022/06/13 09:28:57;;;;;;;1.90;0.50;;;;;;;26.45;48.41;100571.81;4990599;28;20486;-74
2022/06/13 09:31:32;;;;;;;1.77;0.70;;;;;;;26.47;48.45;100574.25;4990348;28;20105;-73
2022/06/13 09:34:07;;;;;;;1.77;0.50;;;;;;;26.46;48.54;100565.41;4990105;28;20065;-73
2022/06/13 09:36:36;;;;;;;1.25;0.60;;;;;;;26.46;48.36;100569.97;4990097;28;20030;-73
2022/06/13 09:39:12;;;;;;;1.85;0.60;;;;;;;26.45;48.27;100563.81;4990234;28;20533;-74
2022/06/13 09:41:59;;;;;;;1.13;0.50;;;;;;;26.44;48.09;100562.19;4990121;28;20113;-73
2022/06/13 09:44:31;;;;;;;1.25;0.60;;;;;;;26.43;47.84;100560.56;4990064;28;20177;-73
2022/06/13 09:47:08;;;;;;;3.53;0.82;;;;;;;26.43;47.45;100558.72;4989878;28;20457;-73
2022/06/13 09:50:19;;;;;;;2.15;0.60;;;;;;;26.42;47.11;100566.97;4990132;28;20061;-73
2022/06/13 09:53:23;;;;;;;0.82;0.40;;;;;;;26.42;47.23;100554.41;4966552;28;20588;-73
2022/06/13 09:55:58;;;;;;;1.55;0.68;;;;;;;26.44;47.17;100551.50;4980079;28;20047;-73
2022/06/13 09:58:45;;;;;;;2.50;0.50;;;;;;;26.47;47.20;100544.88;4990071;28;20042;-73
2022/06/13 10:01:28;;;;;;;1.08;0.45;;;;;;;26.46;46.85;100544.06;4989703;28;20402;-72
2022/06/13 10:04:03;;;;;;;0.73;0.40;;;;;;;26.47;45.70;100545.63;4989882;28;20088;-74
2022/06/13 10:06:29;;;;;;;2.25;0.20;;;;;;;26.48;45.09;100544.59;4989703;28;20173;-73
2022/06/13 10:09:34;;;;;;;0.93;0.30;;;;;;;26.49;44.42;100545.38;4989771;28;20030;-73
2022/06/13 10:12:13;;;;;;;1.55;0.20;;;;;;;26.49;44.37;100538.19;4966231;28;20078;-74
2022/06/13 10:14:51;;;;;;;0.60;0.30;;;;;;;26.51;44.35;100536.06;4989541;28;20030;-73
2022/06/13 10:17:25;;;;;;;1.02;0.30;;;;;;;26.54;44.42;100535.59;4989351;28;20400;-74
2022/06/13 10:19:59;;;;;;;0.40;0.20;;;;;;;26.54;44.76;100524.91;4989487;28;20092;-73
2022/06/13 10:22:30;;;;;;;0.63;0.20;;;;;;;26.55;44.78;100525.69;4989753;28;20594;-73
2022/06/13 10:25:01;;;;;;;2.65;0.50;;;;;;;26.55;45.10;100520.34;4988968;28;20034;-73
2022/06/13 10:27:42;;;;;;;0.75;0.30;;;;;;;26.53;45.05;100523.28;4989422;28;20038;-74
2022/06/13 10:30:25;;;;;;;4.00;0.30;;;;;;;26.55;45.06;100521.16;4989349;28;20045;-73
2022/06/13 10:33:01;;;;;;;0.65;0.40;;;;;;;26.54;45.27;100524.91;4989472;28;20124;-73
2022/06/13 10:36:09;;;;;;;0.95;0.35;;;;;;;26.51;43.89;100512.03;4989103;28;20609;-73
2022/06/13 10:39:07;;;;;;;0.50;0.30;;;;;;;26.52;44.28;100513.66;4960076;28;20054;-73
2022/06/13 10:41:37;;;;;;;1.17;0.30;;;;;;;26.55;44.13;100509.66;4980893;28;20046;-74
2022/06/13 10:44:05;;;;;;;2.20;0.30;;;;;;;26.55;44.05;100510.47;4989031;28;20034;-73
2022/06/13 10:46:31;;;;;;;0.85;0.30;;;;;;;26.55;43.55;100505.13;4989141;28;20041;-73
2022/06/13 10:49:27;;;;;;;1.63;0.30;;;;;;;26.56;43.18;100503.28;4988872;28;20034;-74
2022/06/13 10:52:01;;;;;;;1.77;0.30;;;;;;;26.56;42.93;100501.41;4989023;28;20131;-73
2022/06/13 10:54:35;;;;;;;0.52;0.30;;;;;;;26.55;42.36;100502.47;4989227;28;20057;-73
2022/06/13 10:57:06;;;;;;;0.90;0.30;;;;;;;26.57;41.71;100500.34;4988711;28;20161;-74
2022/06/13 10:59:34;;;;;;;2.28;0.30;;;;;;;26.58;41.59;100499.28;4988736;28;20034;-73
2022/06/13 11:02:04;;;;;;;0.57;0.20;;;;;;;26.59;41.58;100492.09;4988813;28;20026;-73
2022/06/13 11:04:35;;;;;;;1.85;0.20;;;;;;;26.59;42.01;100492.91;4989202;28;20104;-73
2022/06/13 11:07:13;;;;;;;0.35;0.20;;;;;;;26.58;41.64;100488.59;4988898;28;20034;-74
2022/06/13 11:09:45;;;;;;;0.40;0.20;;;;;;;26.61;41.37;100481.97;4988800;28;20053;-74
2022/06/13 11:12:27;;;;;;;1.13;0.30;;;;;;;26.60;41.41;100489.16;4988420;28;20394;-73
2022/06/13 11:23:12;;;;;;;1.05;0.20;;;;;;;26.63;42.02;100485.19;4983038;28;20576;-74
2022/06/13 11:25:38;;;;;;;1.83;0.35;;;;;;;26.63;41.99;100480.66;4984790;28;20022;-73
2022/06/13 11:28:11;;;;;;;1.05;0.30;;;;;;;26.65;42.18;100475.88;4986554;28;20085;-73
2022/06/13 11:30:41;;;;;;;2.20;0.22;;;;;;;26.65;42.18;100475.88;4987676;28;20046;-73
2022/06/13 11:33:09;;;;;;;0.55;0.40;;;;;;;26.65;42.39;100472.38;4983631;28;20037;-73
2022/06/13 11:35:49;;;;;;;1.25;0.30;;;;;;;26.65;41.90;100467.84;4976512;28;20022;-73
2022/06/13 11:38:27;;;;;;;2.58;0.40;;;;;;;26.66;42.01;100463.31;4988004;28;20454;-74
2022/06/13 11:41:01;;;;;;;1.60;0.40;;;;;;;26.65;41.95;100470.53;4987890;28;20037;-74
2022/06/13 11:43:52;;;;;;;1.55;0.30;;;;;;;26.69;41.50;100466.31;4981551;28;20038;-73
2022/06/13 11:46:23;;;;;;;1.23;0.40;;;;;;;26.72;40.87;100463.13;4978521;28;20149;-74
2022/06/13 11:48:50;;;;;;;0.70;0.30;;;;;;;26.75;41.01;100451.94;4981198;28;20034;-74
2022/06/13 11:51:25;;;;;;;0.40;0.30;;;;;;;26.75;40.98;100445.78;4992084;28;20034;-73
2022/06/13 11:53:53;;;;;;;1.35;0.45;;;;;;;26.78;41.22;100447.97;4987849;28;20030;-73
2022/06/13 11:56:29;;;;;;;1.00;0.30;;;;;;;26.75;41.47;100438.56;4991715;28;20425;-73
2022/06/13 11:58:57;;;;;;;0.47;0.30;;;;;;;26.75;41.57;100430.56;4991189;28;20195;-73
2022/06/13 12:01:32;;;;;;;0.70;0.32;;;;;;;26.76;41.28;100440.19;4986634;28;20034;-73
2022/06/13 12:04:18;;;;;;;0.93;0.30;;;;;;;26.78;41.38;100439.94;4972468;28;20039;-73
2022/06/13 12:06:59;;;;;;;2.03;0.45;;;;;;;26.80;41.59;100437.00;4982342;28;20180;-73
2022/06/13 12:09:34;;;;;;;1.00;0.40;;;;;;;26.80;41.39;100439.69;4992012;28;20030;-73
2022/06/13 12:12:05;;;;;;;1.08;0.40;;;;;;;26.81;41.16;100438.63;4979187;28;20038;-73